createdAt,value
2022-07-30T00:02:53.278Z,977.77
2022-07-30T00:08:25.233Z,977.99
2022-07-30T00:13:56.906Z,978.02
2022-07-30T00:19:28.546Z,978.02
2022-07-30T00:25:00.581Z,978.02
2022-07-30T00:30:32.138Z,978.29
2022-07-30T00:36:03.616Z,978.4
2022-07-30T00:41:35.534Z,978.54
2022-07-30T00:47:07.142Z,978.83
2022-07-30T00:52:38.921Z,978.67
2022-07-30T00:58:15.001Z,978.63
2022-07-30T01:03:46.806Z,978.91
2022-07-30T01:09:18.538Z,979.04
2022-07-30T01:14:50.178Z,979.07
2022-07-30T01:20:21.893Z,979.38
2022-07-30T01:25:55.971Z,979.19
2022-07-30T01:31:25.527Z,979.21
2022-07-30T01:36:57.103Z,979.07
2022-07-30T01:42:28.799Z,979.12
2022-07-30T01:48:01.118Z,978.84
2022-07-30T01:53:32.242Z,978.9
2022-07-30T01:59:08.441Z,979.11
2022-07-30T02:04:40.060Z,979.04
2022-07-30T02:10:11.778Z,978.85
2022-07-30T02:15:43.551Z,978.81
2022-07-30T02:21:15.213Z,978.44
2022-07-30T02:26:47.130Z,978.62
2022-07-30T02:32:18.798Z,978.44
2022-07-30T02:37:50.381Z,978.4
2022-07-30T02:43:22.222Z,978.58
2022-07-30T02:48:54.031Z,978.74
2022-07-30T02:54:25.637Z,978.8
2022-07-30T03:00:03.936Z,978.58
2022-07-30T03:05:35.602Z,978.83
2022-07-30T03:11:07.254Z,978.65
2022-07-30T03:16:39.230Z,978.76
2022-07-30T03:22:10.736Z,978.88
2022-07-30T03:27:42.432Z,978.81
2022-07-30T03:33:15.296Z,978.79
2022-07-30T03:38:45.904Z,978.76
2022-07-30T03:44:17.633Z,978.73
2022-07-30T03:49:49.305Z,978.8
2022-07-30T03:55:21.213Z,979.04
2022-07-30T04:00:57.101Z,979.17
2022-07-30T04:06:28.741Z,979.3
2022-07-30T04:12:00.534Z,979.32
2022-07-30T04:17:32.614Z,979.44
2022-07-30T04:23:04.070Z,979.64
2022-07-30T04:28:35.655Z,979.62
2022-07-30T04:34:07.442Z,979.59
2022-07-30T04:39:39.290Z,979.75
2022-07-30T04:45:14.226Z,979.61
2022-07-30T04:50:42.654Z,979.75
2022-07-30T04:56:14.410Z,979.98
2022-07-30T05:01:50.920Z,980.05
2022-07-30T05:07:23.252Z,980.28
2022-07-30T05:12:53.972Z,980.26
2022-07-30T05:18:25.773Z,980.66
2022-07-30T05:23:57.636Z,980.86
2022-07-30T05:29:30.679Z,981.09
2022-07-30T05:35:00.849Z,981.14
2022-07-30T05:40:32.633Z,981.39
2022-07-30T05:46:04.482Z,981.73
2022-07-30T05:51:36.087Z,981.85
2022-07-30T05:57:07.717Z,981.85
2022-07-30T06:02:45.898Z,982.17
2022-07-30T06:08:17.655Z,982.55
2022-07-30T06:13:49.373Z,982.64
2022-07-30T06:19:21.239Z,982.61
2022-07-30T06:24:52.850Z,982.68
2022-07-30T06:30:31.995Z,982.72
2022-07-30T06:35:56.254Z,982.79
2022-07-30T06:41:27.956Z,983.11
2022-07-30T06:47:08.687Z,982.92
2022-07-30T06:52:31.272Z,983.16
2022-07-30T06:58:03.110Z,983.33
2022-07-30T07:03:41.326Z,982.94
2022-07-30T07:09:10.914Z,983.09
2022-07-30T07:14:42.803Z,983.09
2022-07-30T07:20:14.539Z,982.83
2022-07-30T07:25:46.147Z,983.32
2022-07-30T07:32:08.552Z,983.05
2022-07-30T07:36:49.586Z,982.89
2022-07-30T07:42:21.279Z,983.03
2022-07-30T07:47:54.002Z,982.89
2022-07-30T07:53:24.810Z,983.27
2022-07-30T07:58:57.534Z,982.74
2022-07-30T08:04:34.659Z,983.13
2022-07-30T08:10:06.360Z,982.9
2022-07-30T08:15:38.071Z,983.33
2022-07-30T08:21:09.870Z,982.2
2022-07-30T08:26:41.578Z,983.24
2022-07-30T08:32:13.247Z,982.62
2022-07-30T08:37:44.911Z,982.48
2022-07-30T08:43:16.927Z,982.79
2022-07-30T08:48:50.863Z,982.41
2022-07-30T08:54:20.233Z,982.69
2022-07-30T09:00:02.419Z,982.79
2022-07-30T09:05:29.922Z,982.08
2022-07-30T09:11:02.042Z,982.49
2022-07-30T09:16:33.398Z,982.55
2022-07-30T09:22:05.234Z,983.01
2022-07-30T09:27:36.950Z,981.8
2022-07-30T09:33:08.715Z,981.66
2022-07-30T09:38:40.598Z,982.27
2022-07-30T09:44:12.091Z,982.03
2022-07-30T09:49:47.931Z,982.33
2022-07-30T09:55:15.582Z,982.22
2022-07-30T10:00:47.928Z,982.13
2022-07-30T10:06:28.358Z,981.1
2022-07-30T10:11:56.033Z,981.7
2022-07-30T10:17:31.315Z,982.1
2022-07-30T10:22:59.018Z,981.59
2022-07-30T10:28:38.827Z,981.25
2022-07-30T10:34:02.233Z,981.02
2022-07-30T10:39:35.461Z,981.45
2022-07-30T10:45:05.662Z,981.65
2022-07-30T10:50:38.266Z,981.1
2022-07-30T10:56:10.518Z,980.68
2022-07-30T11:01:41.068Z,981.23
2022-07-30T11:07:18.174Z,981.41
2022-07-30T11:12:53.650Z,980.79
2022-07-30T11:18:25.545Z,980.93
2022-07-30T11:23:57.168Z,981.6
2022-07-30T11:29:34.095Z,981.07
2022-07-30T11:34:55.958Z,981.24
2022-07-30T11:40:27.401Z,980.36
2022-07-30T11:45:59.041Z,980.19
2022-07-30T11:51:30.807Z,980.27
2022-07-30T11:57:05.429Z,980.61
2022-07-30T12:02:34.333Z,980.86
2022-07-30T12:08:36.439Z,979.48
2022-07-30T12:13:46.609Z,980.16
2022-07-30T12:19:13.833Z,980.71
2022-07-30T12:24:45.599Z,980.51
2022-07-30T12:30:17.389Z,980.47
2022-07-30T12:35:49.276Z,979.89
2022-07-30T12:41:20.906Z,979.65
2022-07-30T12:46:52.617Z,980.24
2022-07-30T12:52:31.552Z,980.01
2022-07-30T12:57:56.394Z,979.84
2022-07-30T13:03:28.139Z,979.19
2022-07-30T13:09:06.436Z,979.32
2022-07-30T13:14:38.060Z,979.35
2022-07-30T13:20:09.919Z,979.31
2022-07-30T13:25:41.561Z,979.33
2022-07-30T13:31:13.697Z,979.18
2022-07-30T13:36:45.637Z,979.1
2022-07-30T13:42:17.334Z,978.55
2022-07-30T13:47:49.121Z,978.49
2022-07-30T13:53:20.833Z,978.9
2022-07-30T13:58:52.492Z,979.23
2022-07-30T14:04:24.341Z,979.13
2022-07-30T14:10:00.456Z,978.94
2022-07-30T14:15:32.113Z,978.36
2022-07-30T14:21:03.806Z,978.04
2022-07-30T14:26:37.334Z,978.77
2022-07-30T14:32:07.275Z,978.48
2022-07-30T14:37:39.018Z,979.1
2022-07-30T14:43:10.719Z,978.69
2022-07-30T14:48:42.503Z,978.41
2022-07-30T14:54:14.178Z,978.33
2022-07-30T14:59:45.881Z,978.34
2022-07-30T15:05:17.629Z,978.5
2022-07-30T15:11:01.051Z,978.92
2022-07-30T15:16:27.470Z,977.89
2022-07-30T15:21:59.406Z,977.96
2022-07-30T15:27:35.010Z,977.66
2022-07-30T15:33:02.672Z,977.7
2022-07-30T15:38:34.430Z,977.79
2022-07-30T15:44:06.077Z,977.45
2022-07-30T15:49:37.945Z,976.73
2022-07-30T15:55:09.625Z,976.6
2022-07-30T16:00:41.945Z,976.76
2022-07-30T16:06:13.033Z,977.5
2022-07-30T16:11:49.824Z,977.49
2022-07-30T16:17:20.910Z,977.79
2022-07-30T16:22:52.573Z,977.15
2022-07-30T16:28:24.304Z,976.86
2022-07-30T16:33:56.085Z,976.59
2022-07-30T16:39:27.848Z,976.14
2022-07-30T16:44:59.548Z,976.15
2022-07-30T16:50:31.234Z,976.52
2022-07-30T16:56:03.239Z,976.52
2022-07-30T17:01:34.825Z,976.14
2022-07-30T17:07:06.434Z,976.46
2022-07-30T17:12:51.688Z,976.57
2022-07-30T17:18:14.437Z,976.51
2022-07-30T17:23:45.945Z,976.29
2022-07-30T17:29:17.893Z,976.12
2022-07-30T17:34:49.386Z,976.62
2022-07-30T17:40:32.471Z,976.68
2022-07-30T17:45:52.879Z,976.56
2022-07-30T17:51:24.650Z,976.41
2022-07-30T17:56:56.422Z,977.05
2022-07-30T18:02:29.923Z,977.04
2022-07-30T18:07:59.910Z,976.83
2022-07-30T18:13:35.978Z,976.78
2022-07-30T18:19:27.059Z,976.67
2022-07-30T18:24:44.443Z,976.67
2022-07-30T18:30:11.087Z,976.48
2022-07-30T18:35:42.958Z,976.5
2022-07-30T18:41:15.897Z,976.48
2022-07-30T18:46:47.774Z,976.48
2022-07-30T18:52:19.442Z,976.59
2022-07-30T18:57:52.945Z,976.56
2022-07-30T19:03:23.965Z,976.53
2022-07-30T19:08:54.623Z,976.45
2022-07-30T19:14:30.872Z,976.47
2022-07-30T19:20:02.463Z,976.5
2022-07-30T19:25:34.262Z,976.65
2022-07-30T19:31:05.969Z,976.7
2022-07-30T19:36:37.691Z,976.7
2022-07-30T19:42:10.618Z,976.86
2022-07-30T19:47:43.390Z,976.96
2022-07-30T19:53:12.889Z,977.17
2022-07-30T19:58:46.113Z,977.03
2022-07-30T20:04:16.301Z,977.0
2022-07-30T20:09:49.598Z,976.94
2022-07-30T20:15:24.623Z,976.93
2022-07-30T20:20:58.310Z,977.07
2022-07-30T20:26:30.399Z,976.98
2022-07-30T20:31:59.343Z,977.1
2022-07-30T20:37:31.044Z,977.01
2022-07-30T20:43:02.907Z,977.02
2022-07-30T20:48:35.943Z,977.06
2022-07-30T20:54:07.415Z,977.07
2022-07-30T20:59:44.522Z,977.13
2022-07-30T21:05:15.791Z,977.31
2022-07-30T21:10:46.431Z,977.43
2022-07-30T21:16:17.806Z,977.26
2022-07-30T21:22:49.610Z,977.24
2022-07-30T21:27:20.913Z,977.22
2022-07-30T21:32:52.625Z,977.21
2022-07-30T21:38:24.437Z,977.17
2022-07-30T21:43:57.887Z,977.21
2022-07-30T21:49:31.912Z,977.23
2022-07-30T21:55:05.030Z,977.28
2022-07-30T22:00:31.194Z,977.36
2022-07-30T22:06:04.849Z,977.47
2022-07-30T22:11:46.731Z,977.53
2022-07-30T22:17:58.482Z,977.63
2022-07-30T22:22:44.077Z,977.6
2022-07-30T22:28:17.456Z,977.69
2022-07-30T22:33:51.889Z,977.67
2022-07-30T22:39:19.205Z,977.9
2022-07-30T22:44:51.505Z,978.08
2022-07-30T22:50:27.138Z,978.17
2022-07-30T22:55:55.468Z,978.19
2022-07-30T23:01:26.768Z,978.3
2022-07-30T23:07:00.081Z,978.11
2022-07-30T23:12:36.778Z,977.94
2022-07-30T23:18:05.632Z,977.95
2022-07-30T23:23:37.336Z,977.83
2022-07-30T23:29:16.221Z,977.63
2022-07-30T23:34:40.917Z,977.59
2022-07-30T23:40:12.508Z,977.48
2022-07-30T23:45:44.324Z,977.62
2022-07-30T23:51:15.955Z,977.49
2022-07-30T23:56:47.790Z,977.71
